sensor_id;sensor_type;location;lat;lon;timestamp;temperature;humidity
674;DHT22;319;48.764;9.174;2023-08-06T00:02:26;18.40;99.90
674;DHT22;319;48.764;9.174;2023-08-06T00:04:54;18.40;99.90
674;DHT22;319;48.764;9.174;2023-08-06T00:07:21;18.50;99.90
674;DHT22;319;48.764;9.174;2023-08-06T00:09:48;18.40;99.90
674;DHT22;319;48.764;9.174;2023-08-06T00:12:15;18.50;99.90
674;DHT22;319;48.764;9.174;2023-08-06T00:14:42;18.50;99.90
674;DHT22;319;48.764;9.174;2023-08-06T00:17:09;18.50;99.90
674;DHT22;319;48.764;9.174;2023-08-06T00:19:36;18.40;99.90
674;DHT22;319;48.764;9.174;2023-08-06T00:22:04;18.30;99.90
674;DHT22;319;48.764;9.174;2023-08-06T00:24:31;18.20;99.90
674;DHT22;319;48.764;9.174;2023-08-06T00:26:58;18.20;99.90
674;DHT22;319;48.764;9.174;2023-08-06T00:29:25;18.10;99.90
674;DHT22;319;48.764;9.174;2023-08-06T00:31:52;18.00;99.90
674;DHT22;319;48.764;9.174;2023-08-06T00:34:19;18.00;99.90
674;DHT22;319;48.764;9.174;2023-08-06T00:36:46;18.00;99.90
674;DHT22;319;48.764;9.174;2023-08-06T00:39:14;17.90;99.90
674;DHT22;319;48.764;9.174;2023-08-06T00:41:41;17.90;99.90
674;DHT22;319;48.764;9.174;2023-08-06T00:44:08;17.80;99.90
674;DHT22;319;48.764;9.174;2023-08-06T00:46:35;17.80;99.90
674;DHT22;319;48.764;9.174;2023-08-06T00:49:02;17.80;99.90
674;DHT22;319;48.764;9.174;2023-08-06T00:51:30;17.70;99.90
674;DHT22;319;48.764;9.174;2023-08-06T00:53:57;17.70;99.90
674;DHT22;319;48.764;9.174;2023-08-06T00:56:25;17.70;99.90
674;DHT22;319;48.764;9.174;2023-08-06T00:58:53;17.70;99.90
674;DHT22;319;48.764;9.174;2023-08-06T01:01:20;17.70;99.90
674;DHT22;319;48.764;9.174;2023-08-06T01:03:47;17.70;99.90
674;DHT22;319;48.764;9.174;2023-08-06T01:06:16;17.60;99.90
674;DHT22;319;48.764;9.174;2023-08-06T01:08:51;17.50;99.90
674;DHT22;319;48.764;9.174;2023-08-06T01:11:29;17.50;99.90
674;DHT22;319;48.764;9.174;2023-08-06T01:14:01;17.40;99.90
674;DHT22;319;48.764;9.174;2023-08-06T01:16:30;17.40;99.90
674;DHT22;319;48.764;9.174;2023-08-06T01:18:58;17.40;99.90
674;DHT22;319;48.764;9.174;2023-08-06T01:21:26;17.40;99.90
674;DHT22;319;48.764;9.174;2023-08-06T01:23:53;17.30;99.90
674;DHT22;319;48.764;9.174;2023-08-06T01:26:26;17.40;99.90
674;DHT22;319;48.764;9.174;2023-08-06T01:29:00;17.30;99.90
674;DHT22;319;48.764;9.174;2023-08-06T01:31:32;17.30;99.90
674;DHT22;319;48.764;9.174;2023-08-06T01:34:01;17.30;99.90
674;DHT22;319;48.764;9.174;2023-08-06T01:36:30;17.30;99.90
674;DHT22;319;48.764;9.174;2023-08-06T01:38:58;17.20;99.90
674;DHT22;319;48.764;9.174;2023-08-06T01:41:25;17.20;99.90
674;DHT22;319;48.764;9.174;2023-08-06T01:43:52;17.20;99.90
674;DHT22;319;48.764;9.174;2023-08-06T01:46:19;17.20;99.90
674;DHT22;319;48.764;9.174;2023-08-06T01:48:46;17.30;99.90
674;DHT22;319;48.764;9.174;2023-08-06T01:51:13;17.40;99.90
674;DHT22;319;48.764;9.174;2023-08-06T01:53:41;17.40;99.90
674;DHT22;319;48.764;9.174;2023-08-06T01:56:08;17.40;99.90
674;DHT22;319;48.764;9.174;2023-08-06T01:58:35;17.20;99.90
674;DHT22;319;48.764;9.174;2023-08-06T02:01:04;17.10;99.90
674;DHT22;319;48.764;9.174;2023-08-06T02:03:31;17.00;99.90
674;DHT22;319;48.764;9.174;2023-08-06T02:05:58;16.90;99.90
674;DHT22;319;48.764;9.174;2023-08-06T02:08:25;16.80;99.90
674;DHT22;319;48.764;9.174;2023-08-06T02:10:55;16.80;99.90
674;DHT22;319;48.764;9.174;2023-08-06T02:13:23;16.70;99.90
674;DHT22;319;48.764;9.174;2023-08-06T02:15:50;16.60;99.90
674;DHT22;319;48.764;9.174;2023-08-06T02:18:17;16.70;99.90
674;DHT22;319;48.764;9.174;2023-08-06T02:20:55;16.70;99.90
674;DHT22;319;48.764;9.174;2023-08-06T02:23:23;16.60;99.90
674;DHT22;319;48.764;9.174;2023-08-06T02:25:58;16.60;99.90
674;DHT22;319;48.764;9.174;2023-08-06T02:28:25;16.50;99.90
674;DHT22;319;48.764;9.174;2023-08-06T02:30:52;16.40;99.90
674;DHT22;319;48.764;9.174;2023-08-06T02:33:19;16.30;99.90
674;DHT22;319;48.764;9.174;2023-08-06T02:35:46;16.30;99.90
674;DHT22;319;48.764;9.174;2023-08-06T02:38:13;16.30;99.90
674;DHT22;319;48.764;9.174;2023-08-06T02:40:43;16.30;99.90
674;DHT22;319;48.764;9.174;2023-08-06T02:43:12;16.20;99.90
674;DHT22;319;48.764;9.174;2023-08-06T02:45:40;16.20;99.90
674;DHT22;319;48.764;9.174;2023-08-06T02:48:06;16.20;99.90
674;DHT22;319;48.764;9.174;2023-08-06T02:50:38;16.20;99.90
674;DHT22;319;48.764;9.174;2023-08-06T02:53:05;16.10;99.90
674;DHT22;319;48.764;9.174;2023-08-06T02:55:32;16.10;99.90
674;DHT22;319;48.764;9.174;2023-08-06T02:58:00;16.10;99.90
674;DHT22;319;48.764;9.174;2023-08-06T03:00:28;16.10;99.90
674;DHT22;319;48.764;9.174;2023-08-06T03:02:55;16.10;99.90
674;DHT22;319;48.764;9.174;2023-08-06T03:05:22;16.10;99.90
674;DHT22;319;48.764;9.174;2023-08-06T03:07:49;16.10;99.90
674;DHT22;319;48.764;9.174;2023-08-06T03:10:16;16.00;99.90
674;DHT22;319;48.764;9.174;2023-08-06T03:12:43;16.10;99.90
674;DHT22;319;48.764;9.174;2023-08-06T03:15:10;16.20;99.90
674;DHT22;319;48.764;9.174;2023-08-06T03:17:38;16.20;99.90
674;DHT22;319;48.764;9.174;2023-08-06T03:20:06;16.20;99.90
674;DHT22;319;48.764;9.174;2023-08-06T03:22:33;16.20;99.90
674;DHT22;319;48.764;9.174;2023-08-06T03:25:00;16.30;99.90
674;DHT22;319;48.764;9.174;2023-08-06T03:27:27;16.30;99.90
674;DHT22;319;48.764;9.174;2023-08-06T03:29:54;16.30;99.90
674;DHT22;319;48.764;9.174;2023-08-06T03:32:21;16.30;99.90
674;DHT22;319;48.764;9.174;2023-08-06T03:34:49;16.30;99.90
674;DHT22;319;48.764;9.174;2023-08-06T03:37:16;16.30;99.90
674;DHT22;319;48.764;9.174;2023-08-06T03:39:43;16.40;99.90
674;DHT22;319;48.764;9.174;2023-08-06T03:42:10;16.40;99.90
674;DHT22;319;48.764;9.174;2023-08-06T03:44:37;16.50;99.90
674;DHT22;319;48.764;9.174;2023-08-06T03:47:05;16.50;99.90
674;DHT22;319;48.764;9.174;2023-08-06T03:49:32;16.50;99.90
674;DHT22;319;48.764;9.174;2023-08-06T03:52:00;16.50;99.90
674;DHT22;319;48.764;9.174;2023-08-06T03:54:27;16.50;99.90
674;DHT22;319;48.764;9.174;2023-08-06T03:56:55;16.50;99.90
674;DHT22;319;48.764;9.174;2023-08-06T03:59:22;16.50;99.90
674;DHT22;319;48.764;9.174;2023-08-06T04:01:49;16.50;99.90
674;DHT22;319;48.764;9.174;2023-08-06T04:04:16;16.50;99.90
674;DHT22;319;48.764;9.174;2023-08-06T04:06:43;16.50;99.90
674;DHT22;319;48.764;9.174;2023-08-06T04:09:11;16.50;99.90
674;DHT22;319;48.764;9.174;2023-08-06T04:11:38;16.40;99.90
674;DHT22;319;48.764;9.174;2023-08-06T04:14:05;16.40;99.90
674;DHT22;319;48.764;9.174;2023-08-06T04:16:32;16.50;99.90
674;DHT22;319;48.764;9.174;2023-08-06T04:18:59;16.50;99.90
674;DHT22;319;48.764;9.174;2023-08-06T04:21:26;16.50;99.90
674;DHT22;319;48.764;9.174;2023-08-06T04:23:53;16.50;99.90
674;DHT22;319;48.764;9.174;2023-08-06T04:26:21;16.50;99.90
674;DHT22;319;48.764;9.174;2023-08-06T04:28:48;16.60;99.90
674;DHT22;319;48.764;9.174;2023-08-06T04:31:15;16.70;99.90
674;DHT22;319;48.764;9.174;2023-08-06T04:33:42;16.80;99.90
674;DHT22;319;48.764;9.174;2023-08-06T04:36:09;16.80;99.90
674;DHT22;319;48.764;9.174;2023-08-06T04:38:36;16.90;99.90
674;DHT22;319;48.764;9.174;2023-08-06T04:41:04;16.90;99.90
674;DHT22;319;48.764;9.174;2023-08-06T04:43:32;17.00;99.90
674;DHT22;319;48.764;9.174;2023-08-06T04:45:59;17.00;99.90
674;DHT22;319;48.764;9.174;2023-08-06T04:48:26;17.10;99.90
674;DHT22;319;48.764;9.174;2023-08-06T04:50:53;17.10;99.90
674;DHT22;319;48.764;9.174;2023-08-06T04:53:20;17.10;99.90
674;DHT22;319;48.764;9.174;2023-08-06T04:55:47;17.00;99.90
674;DHT22;319;48.764;9.174;2023-08-06T04:58:14;16.90;99.90
674;DHT22;319;48.764;9.174;2023-08-06T05:00:42;17.00;99.90
674;DHT22;319;48.764;9.174;2023-08-06T05:03:09;17.00;99.90
674;DHT22;319;48.764;9.174;2023-08-06T05:05:36;17.00;99.90
674;DHT22;319;48.764;9.174;2023-08-06T05:08:03;17.00;99.90
674;DHT22;319;48.764;9.174;2023-08-06T05:10:30;17.00;99.90
674;DHT22;319;48.764;9.174;2023-08-06T05:12:57;17.10;99.90
674;DHT22;319;48.764;9.174;2023-08-06T05:15:24;17.20;99.90
674;DHT22;319;48.764;9.174;2023-08-06T05:17:53;17.30;99.90
674;DHT22;319;48.764;9.174;2023-08-06T05:20:20;17.30;99.90
674;DHT22;319;48.764;9.174;2023-08-06T05:22:47;17.30;99.90
674;DHT22;319;48.764;9.174;2023-08-06T05:25:15;17.30;99.90
674;DHT22;319;48.764;9.174;2023-08-06T05:27:42;17.30;99.90
674;DHT22;319;48.764;9.174;2023-08-06T05:30:10;17.40;99.90
674;DHT22;319;48.764;9.174;2023-08-06T05:32:37;17.60;99.90
674;DHT22;319;48.764;9.174;2023-08-06T05:35:06;17.70;99.90
674;DHT22;319;48.764;9.174;2023-08-06T05:37:33;17.90;99.90
674;DHT22;319;48.764;9.174;2023-08-06T05:40:00;18.00;99.90
674;DHT22;319;48.764;9.174;2023-08-06T05:42:27;18.30;99.90
674;DHT22;319;48.764;9.174;2023-08-06T05:44:54;18.20;99.90
674;DHT22;319;48.764;9.174;2023-08-06T05:47:21;18.40;99.90
674;DHT22;319;48.764;9.174;2023-08-06T05:49:48;18.40;99.90
674;DHT22;319;48.764;9.174;2023-08-06T05:52:16;18.50;99.90
674;DHT22;319;48.764;9.174;2023-08-06T05:54:43;18.40;99.90
674;DHT22;319;48.764;9.174;2023-08-06T05:57:10;18.40;99.90
674;DHT22;319;48.764;9.174;2023-08-06T05:59:37;18.40;99.90
674;DHT22;319;48.764;9.174;2023-08-06T06:02:05;18.30;99.90
674;DHT22;319;48.764;9.174;2023-08-06T06:04:32;18.30;99.90
674;DHT22;319;48.764;9.174;2023-08-06T06:06:59;18.40;99.90
674;DHT22;319;48.764;9.174;2023-08-06T06:09:28;18.30;99.90
674;DHT22;319;48.764;9.174;2023-08-06T06:11:54;18.20;99.90
674;DHT22;319;48.764;9.174;2023-08-06T06:14:21;18.10;99.90
674;DHT22;319;48.764;9.174;2023-08-06T06:16:49;18.00;99.90
674;DHT22;319;48.764;9.174;2023-08-06T06:19:16;17.90;99.90
674;DHT22;319;48.764;9.174;2023-08-06T06:21:43;17.70;99.90
674;DHT22;319;48.764;9.174;2023-08-06T06:24:10;17.70;99.90
674;DHT22;319;48.764;9.174;2023-08-06T06:26:38;17.70;99.90
674;DHT22;319;48.764;9.174;2023-08-06T06:29:05;17.70;99.90
674;DHT22;319;48.764;9.174;2023-08-06T06:31:32;17.80;99.90
674;DHT22;319;48.764;9.174;2023-08-06T06:33:59;17.80;99.90
674;DHT22;319;48.764;9.174;2023-08-06T06:36:26;17.90;99.90
674;DHT22;319;48.764;9.174;2023-08-06T06:38:53;18.00;99.90
674;DHT22;319;48.764;9.174;2023-08-06T06:41:20;18.00;99.90
674;DHT22;319;48.764;9.174;2023-08-06T06:43:48;18.10;99.90
674;DHT22;319;48.764;9.174;2023-08-06T06:46:15;18.20;99.90
674;DHT22;319;48.764;9.174;2023-08-06T06:48:42;18.30;99.90
674;DHT22;319;48.764;9.174;2023-08-06T06:51:09;18.50;99.90
674;DHT22;319;48.764;9.174;2023-08-06T06:53:36;18.80;99.90
674;DHT22;319;48.764;9.174;2023-08-06T06:56:04;18.90;99.90
674;DHT22;319;48.764;9.174;2023-08-06T06:58:31;18.90;99.90
674;DHT22;319;48.764;9.174;2023-08-06T07:00:59;18.90;99.90
674;DHT22;319;48.764;9.174;2023-08-06T07:03:26;18.80;99.90
674;DHT22;319;48.764;9.174;2023-08-06T07:05:57;18.70;99.90
674;DHT22;319;48.764;9.174;2023-08-06T07:08:24;18.40;99.90
674;DHT22;319;48.764;9.174;2023-08-06T07:10:59;18.20;99.90
674;DHT22;319;48.764;9.174;2023-08-06T07:13:28;18.00;99.90
674;DHT22;319;48.764;9.174;2023-08-06T07:15:55;18.00;99.90
674;DHT22;319;48.764;9.174;2023-08-06T07:18:23;17.90;99.90
674;DHT22;319;48.764;9.174;2023-08-06T07:20:52;17.80;99.90
674;DHT22;319;48.764;9.174;2023-08-06T07:23:20;17.60;99.90
674;DHT22;319;48.764;9.174;2023-08-06T07:25:48;17.50;99.90
674;DHT22;319;48.764;9.174;2023-08-06T07:28:15;17.40;99.90
674;DHT22;319;48.764;9.174;2023-08-06T07:30:43;17.30;99.90
674;DHT22;319;48.764;9.174;2023-08-06T07:33:11;17.10;99.90
674;DHT22;319;48.764;9.174;2023-08-06T07:35:39;17.00;99.90
674;DHT22;319;48.764;9.174;2023-08-06T07:38:06;16.90;99.90
674;DHT22;319;48.764;9.174;2023-08-06T07:40:34;16.80;99.90
674;DHT22;319;48.764;9.174;2023-08-06T07:43:01;16.90;99.90
674;DHT22;319;48.764;9.174;2023-08-06T07:45:32;16.90;99.90
674;DHT22;319;48.764;9.174;2023-08-06T07:48:00;17.00;99.90
674;DHT22;319;48.764;9.174;2023-08-06T07:50:27;17.10;99.90
674;DHT22;319;48.764;9.174;2023-08-06T07:52:55;17.10;99.90
674;DHT22;319;48.764;9.174;2023-08-06T07:55:22;17.20;99.90
674;DHT22;319;48.764;9.174;2023-08-06T07:57:49;17.20;99.90
674;DHT22;319;48.764;9.174;2023-08-06T08:00:16;17.20;99.90
674;DHT22;319;48.764;9.174;2023-08-06T08:02:43;17.20;99.90
674;DHT22;319;48.764;9.174;2023-08-06T08:05:11;17.30;99.90
674;DHT22;319;48.764;9.174;2023-08-06T08:07:38;17.30;99.90
674;DHT22;319;48.764;9.174;2023-08-06T08:10:07;17.30;99.90
674;DHT22;319;48.764;9.174;2023-08-06T08:12:34;17.40;99.90
674;DHT22;319;48.764;9.174;2023-08-06T08:15:01;17.50;99.90
674;DHT22;319;48.764;9.174;2023-08-06T08:17:28;17.60;99.90
674;DHT22;319;48.764;9.174;2023-08-06T08:19:55;17.90;99.90
674;DHT22;319;48.764;9.174;2023-08-06T08:22:22;18.10;99.90
674;DHT22;319;48.764;9.174;2023-08-06T08:24:49;18.30;99.90
674;DHT22;319;48.764;9.174;2023-08-06T08:27:17;18.30;99.90
674;DHT22;319;48.764;9.174;2023-08-06T08:29:44;18.50;99.90
674;DHT22;319;48.764;9.174;2023-08-06T08:32:11;18.60;99.90
674;DHT22;319;48.764;9.174;2023-08-06T08:34:38;18.60;99.90
674;DHT22;319;48.764;9.174;2023-08-06T08:37:05;18.80;99.90
674;DHT22;319;48.764;9.174;2023-08-06T08:39:32;19.10;99.90
674;DHT22;319;48.764;9.174;2023-08-06T08:41:59;19.30;99.90
674;DHT22;319;48.764;9.174;2023-08-06T08:44:30;19.30;99.90
674;DHT22;319;48.764;9.174;2023-08-06T08:46:58;19.40;99.90
674;DHT22;319;48.764;9.174;2023-08-06T08:49:26;19.60;99.90
674;DHT22;319;48.764;9.174;2023-08-06T08:51:54;19.40;99.90
674;DHT22;319;48.764;9.174;2023-08-06T08:54:24;19.30;99.90
674;DHT22;319;48.764;9.174;2023-08-06T08:56:52;19.20;99.90
674;DHT22;319;48.764;9.174;2023-08-06T08:59:20;19.00;99.90
674;DHT22;319;48.764;9.174;2023-08-06T09:01:49;19.10;99.90
674;DHT22;319;48.764;9.174;2023-08-06T09:04:17;19.10;99.90
674;DHT22;319;48.764;9.174;2023-08-06T09:06:46;19.00;99.90
674;DHT22;319;48.764;9.174;2023-08-06T09:09:20;19.00;99.90
674;DHT22;319;48.764;9.174;2023-08-06T09:11:49;18.80;99.90
674;DHT22;319;48.764;9.174;2023-08-06T09:14:16;19.00;99.90
674;DHT22;319;48.764;9.174;2023-08-06T09:16:44;19.20;99.90
674;DHT22;319;48.764;9.174;2023-08-06T09:19:13;19.50;99.90
674;DHT22;319;48.764;9.174;2023-08-06T09:21:41;20.00;99.90
674;DHT22;319;48.764;9.174;2023-08-06T09:24:08;20.30;99.90
674;DHT22;319;48.764;9.174;2023-08-06T09:26:36;20.40;99.50
674;DHT22;319;48.764;9.174;2023-08-06T09:29:05;20.80;99.50
674;DHT22;319;48.764;9.174;2023-08-06T09:31:33;20.70;99.10
674;DHT22;319;48.764;9.174;2023-08-06T09:34:12;20.90;99.20
674;DHT22;319;48.764;9.174;2023-08-06T09:36:41;20.70;98.30
674;DHT22;319;48.764;9.174;2023-08-06T09:39:15;20.80;98.60
674;DHT22;319;48.764;9.174;2023-08-06T09:41:43;20.80;98.70
674;DHT22;319;48.764;9.174;2023-08-06T09:44:15;20.40;99.00
674;DHT22;319;48.764;9.174;2023-08-06T09:46:46;20.30;99.70
674;DHT22;319;48.764;9.174;2023-08-06T09:49:15;20.00;99.70
674;DHT22;319;48.764;9.174;2023-08-06T09:51:42;20.00;99.90
674;DHT22;319;48.764;9.174;2023-08-06T09:54:12;20.00;99.90
674;DHT22;319;48.764;9.174;2023-08-06T09:56:39;20.20;99.90
674;DHT22;319;48.764;9.174;2023-08-06T09:59:07;20.10;99.70
674;DHT22;319;48.764;9.174;2023-08-06T10:01:35;20.00;99.90
674;DHT22;319;48.764;9.174;2023-08-06T10:04:03;19.90;99.90
674;DHT22;319;48.764;9.174;2023-08-06T10:06:34;19.70;99.90
674;DHT22;319;48.764;9.174;2023-08-06T10:09:01;19.60;99.90
674;DHT22;319;48.764;9.174;2023-08-06T10:11:29;19.40;99.90
674;DHT22;319;48.764;9.174;2023-08-06T10:14:00;19.10;99.90
674;DHT22;319;48.764;9.174;2023-08-06T10:16:30;18.90;99.90
674;DHT22;319;48.764;9.174;2023-08-06T10:18:58;18.80;99.90
674;DHT22;319;48.764;9.174;2023-08-06T10:21:26;18.70;99.90
674;DHT22;319;48.764;9.174;2023-08-06T10:23:57;18.60;99.90
674;DHT22;319;48.764;9.174;2023-08-06T10:26:25;18.40;99.90
674;DHT22;319;48.764;9.174;2023-08-06T10:28:53;18.30;99.90
674;DHT22;319;48.764;9.174;2023-08-06T10:31:22;18.20;99.90
674;DHT22;319;48.764;9.174;2023-08-06T10:34:08;18.10;99.90
674;DHT22;319;48.764;9.174;2023-08-06T10:36:35;18.00;99.90
674;DHT22;319;48.764;9.174;2023-08-06T10:39:04;18.00;99.90
674;DHT22;319;48.764;9.174;2023-08-06T10:41:32;18.00;99.90
674;DHT22;319;48.764;9.174;2023-08-06T10:44:06;18.10;99.90
674;DHT22;319;48.764;9.174;2023-08-06T10:46:34;18.00;99.90
674;DHT22;319;48.764;9.174;2023-08-06T10:49:01;18.10;99.90
674;DHT22;319;48.764;9.174;2023-08-06T10:51:29;18.20;99.90
674;DHT22;319;48.764;9.174;2023-08-06T10:53:56;18.30;99.90
674;DHT22;319;48.764;9.174;2023-08-06T10:56:25;18.40;99.90
674;DHT22;319;48.764;9.174;2023-08-06T10:58:54;18.40;99.90
674;DHT22;319;48.764;9.174;2023-08-06T11:01:22;18.50;99.90
674;DHT22;319;48.764;9.174;2023-08-06T11:03:50;18.50;99.90
674;DHT22;319;48.764;9.174;2023-08-06T11:06:19;18.60;99.90
674;DHT22;319;48.764;9.174;2023-08-06T11:08:48;18.70;99.90
674;DHT22;319;48.764;9.174;2023-08-06T11:11:16;18.70;99.90
674;DHT22;319;48.764;9.174;2023-08-06T11:13:46;18.70;99.90
674;DHT22;319;48.764;9.174;2023-08-06T11:16:14;18.70;99.90
674;DHT22;319;48.764;9.174;2023-08-06T11:18:42;18.70;99.90
674;DHT22;319;48.764;9.174;2023-08-06T11:21:09;18.60;99.90
674;DHT22;319;48.764;9.174;2023-08-06T11:23:37;18.70;99.90
674;DHT22;319;48.764;9.174;2023-08-06T11:26:04;18.70;99.90
674;DHT22;319;48.764;9.174;2023-08-06T11:28:31;18.50;99.90
674;DHT22;319;48.764;9.174;2023-08-06T11:31:00;18.50;99.90
674;DHT22;319;48.764;9.174;2023-08-06T11:33:29;18.40;99.90
674;DHT22;319;48.764;9.174;2023-08-06T11:35:58;18.40;99.90
674;DHT22;319;48.764;9.174;2023-08-06T11:38:25;18.50;99.90
674;DHT22;319;48.764;9.174;2023-08-06T11:40:53;18.80;99.90
674;DHT22;319;48.764;9.174;2023-08-06T11:43:20;18.80;99.90
674;DHT22;319;48.764;9.174;2023-08-06T11:45:51;18.80;99.90
674;DHT22;319;48.764;9.174;2023-08-06T11:48:21;18.80;99.90
674;DHT22;319;48.764;9.174;2023-08-06T11:50:49;18.70;99.90
674;DHT22;319;48.764;9.174;2023-08-06T11:53:16;18.80;99.90
674;DHT22;319;48.764;9.174;2023-08-06T11:55:43;18.80;99.90
674;DHT22;319;48.764;9.174;2023-08-06T11:58:11;18.90;99.90
674;DHT22;319;48.764;9.174;2023-08-06T12:00:40;18.70;99.90
674;DHT22;319;48.764;9.174;2023-08-06T12:03:06;18.50;99.90
674;DHT22;319;48.764;9.174;2023-08-06T12:05:37;18.30;99.90
674;DHT22;319;48.764;9.174;2023-08-06T12:08:05;18.10;99.90
674;DHT22;319;48.764;9.174;2023-08-06T12:10:32;18.10;99.90
674;DHT22;319;48.764;9.174;2023-08-06T12:13:00;17.90;99.90
674;DHT22;319;48.764;9.174;2023-08-06T12:15:28;17.80;99.90
674;DHT22;319;48.764;9.174;2023-08-06T12:17:55;17.80;99.90
674;DHT22;319;48.764;9.174;2023-08-06T12:20:22;17.90;99.90
674;DHT22;319;48.764;9.174;2023-08-06T12:22:51;17.90;99.90
674;DHT22;319;48.764;9.174;2023-08-06T12:25:18;17.90;99.90
674;DHT22;319;48.764;9.174;2023-08-06T12:27:47;18.00;99.90
674;DHT22;319;48.764;9.174;2023-08-06T12:30:14;18.00;99.90
674;DHT22;319;48.764;9.174;2023-08-06T12:32:41;18.30;99.90
674;DHT22;319;48.764;9.174;2023-08-06T12:35:08;18.40;99.90
674;DHT22;319;48.764;9.174;2023-08-06T12:37:36;18.50;99.90
674;DHT22;319;48.764;9.174;2023-08-06T12:40:06;18.80;99.90
674;DHT22;319;48.764;9.174;2023-08-06T12:42:33;18.90;99.70
674;DHT22;319;48.764;9.174;2023-08-06T12:45:03;19.00;99.90
674;DHT22;319;48.764;9.174;2023-08-06T12:47:30;19.30;99.70
674;DHT22;319;48.764;9.174;2023-08-06T12:49:57;19.50;99.30
674;DHT22;319;48.764;9.174;2023-08-06T12:52:24;19.80;98.80
674;DHT22;319;48.764;9.174;2023-08-06T12:54:52;19.90;97.70
674;DHT22;319;48.764;9.174;2023-08-06T12:57:20;20.00;97.70
674;DHT22;319;48.764;9.174;2023-08-06T12:59:47;20.20;97.50
674;DHT22;319;48.764;9.174;2023-08-06T13:02:14;20.50;97.40
674;DHT22;319;48.764;9.174;2023-08-06T13:04:41;20.40;96.50
674;DHT22;319;48.764;9.174;2023-08-06T13:07:08;20.10;96.60
674;DHT22;319;48.764;9.174;2023-08-06T13:09:35;20.10;96.50
674;DHT22;319;48.764;9.174;2023-08-06T13:12:02;19.90;96.60
674;DHT22;319;48.764;9.174;2023-08-06T13:14:32;19.80;97.10
674;DHT22;319;48.764;9.174;2023-08-06T13:16:59;19.70;96.60
674;DHT22;319;48.764;9.174;2023-08-06T13:19:26;19.70;97.00
674;DHT22;319;48.764;9.174;2023-08-06T13:22:01;19.90;96.50
674;DHT22;319;48.764;9.174;2023-08-06T13:24:29;20.10;96.00
674;DHT22;319;48.764;9.174;2023-08-06T13:26:56;20.20;96.10
674;DHT22;319;48.764;9.174;2023-08-06T13:29:24;20.40;95.60
674;DHT22;319;48.764;9.174;2023-08-06T13:31:52;20.40;95.40
674;DHT22;319;48.764;9.174;2023-08-06T13:34:19;20.30;95.10
674;DHT22;319;48.764;9.174;2023-08-06T13:36:46;20.30;95.40
674;DHT22;319;48.764;9.174;2023-08-06T13:39:13;20.40;94.90
674;DHT22;319;48.764;9.174;2023-08-06T13:41:42;20.20;94.50
674;DHT22;319;48.764;9.174;2023-08-06T13:44:09;20.10;94.70
674;DHT22;319;48.764;9.174;2023-08-06T13:46:36;19.90;94.80
674;DHT22;319;48.764;9.174;2023-08-06T13:49:04;19.80;94.80
674;DHT22;319;48.764;9.174;2023-08-06T13:51:31;19.80;95.00
674;DHT22;319;48.764;9.174;2023-08-06T13:53:59;19.60;95.00
674;DHT22;319;48.764;9.174;2023-08-06T13:56:26;19.40;95.20
674;DHT22;319;48.764;9.174;2023-08-06T13:58:55;19.40;95.70
674;DHT22;319;48.764;9.174;2023-08-06T14:01:21;19.50;95.40
674;DHT22;319;48.764;9.174;2023-08-06T14:03:48;19.60;95.40
674;DHT22;319;48.764;9.174;2023-08-06T14:06:17;19.70;95.40
674;DHT22;319;48.764;9.174;2023-08-06T14:08:43;19.80;95.10
674;DHT22;319;48.764;9.174;2023-08-06T14:11:10;19.90;95.10
674;DHT22;319;48.764;9.174;2023-08-06T14:13:37;19.70;95.00
674;DHT22;319;48.764;9.174;2023-08-06T14:16:04;19.70;95.20
674;DHT22;319;48.764;9.174;2023-08-06T14:18:31;19.50;95.20
674;DHT22;319;48.764;9.174;2023-08-06T14:20:58;19.30;95.60
674;DHT22;319;48.764;9.174;2023-08-06T14:23:26;19.40;95.90
674;DHT22;319;48.764;9.174;2023-08-06T14:25:53;19.60;95.50
674;DHT22;319;48.764;9.174;2023-08-06T14:28:20;19.60;95.00
674;DHT22;319;48.764;9.174;2023-08-06T14:30:47;19.60;95.20
674;DHT22;319;48.764;9.174;2023-08-06T14:33:14;19.60;94.90
674;DHT22;319;48.764;9.174;2023-08-06T14:35:41;19.80;94.80
674;DHT22;319;48.764;9.174;2023-08-06T14:38:08;19.60;94.60
674;DHT22;319;48.764;9.174;2023-08-06T14:40:36;19.60;94.80
674;DHT22;319;48.764;9.174;2023-08-06T14:43:05;19.70;95.10
674;DHT22;319;48.764;9.174;2023-08-06T14:45:32;19.40;95.50
674;DHT22;319;48.764;9.174;2023-08-06T14:47:58;19.00;96.20
674;DHT22;319;48.764;9.174;2023-08-06T14:50:25;18.60;97.50
674;DHT22;319;48.764;9.174;2023-08-06T14:52:52;18.30;99.50
674;DHT22;319;48.764;9.174;2023-08-06T14:55:23;18.10;99.90
674;DHT22;319;48.764;9.174;2023-08-06T14:57:52;18.00;99.90
674;DHT22;319;48.764;9.174;2023-08-06T15:00:19;18.00;99.90
674;DHT22;319;48.764;9.174;2023-08-06T15:02:46;18.10;99.90
674;DHT22;319;48.764;9.174;2023-08-06T15:05:13;18.00;99.90
674;DHT22;319;48.764;9.174;2023-08-06T15:07:40;17.80;99.90
674;DHT22;319;48.764;9.174;2023-08-06T15:10:08;17.70;99.90
674;DHT22;319;48.764;9.174;2023-08-06T15:12:35;17.80;99.90
674;DHT22;319;48.764;9.174;2023-08-06T15:15:05;17.90;99.90
674;DHT22;319;48.764;9.174;2023-08-06T15:17:32;18.10;99.90
674;DHT22;319;48.764;9.174;2023-08-06T15:19:59;18.40;99.90
674;DHT22;319;48.764;9.174;2023-08-06T15:22:26;18.80;99.90
674;DHT22;319;48.764;9.174;2023-08-06T15:24:54;18.90;99.30
674;DHT22;319;48.764;9.174;2023-08-06T15:27:21;19.20;99.40
674;DHT22;319;48.764;9.174;2023-08-06T15:29:48;19.40;98.20
674;DHT22;319;48.764;9.174;2023-08-06T15:32:16;19.50;97.60
674;DHT22;319;48.764;9.174;2023-08-06T15:34:43;19.60;97.20
674;DHT22;319;48.764;9.174;2023-08-06T15:37:10;19.70;96.70
674;DHT22;319;48.764;9.174;2023-08-06T15:39:37;19.90;96.50
674;DHT22;319;48.764;9.174;2023-08-06T15:42:05;20.10;96.50
674;DHT22;319;48.764;9.174;2023-08-06T15:44:32;20.10;95.80
674;DHT22;319;48.764;9.174;2023-08-06T15:46:58;20.10;95.60
674;DHT22;319;48.764;9.174;2023-08-06T15:49:27;19.90;95.50
674;DHT22;319;48.764;9.174;2023-08-06T15:51:54;19.80;95.80
674;DHT22;319;48.764;9.174;2023-08-06T15:54:21;19.70;96.10
674;DHT22;319;48.764;9.174;2023-08-06T15:56:47;19.70;96.00
674;DHT22;319;48.764;9.174;2023-08-06T15:59:22;19.70;96.10
674;DHT22;319;48.764;9.174;2023-08-06T16:01:49;19.90;96.10
674;DHT22;319;48.764;9.174;2023-08-06T16:04:16;19.80;95.40
674;DHT22;319;48.764;9.174;2023-08-06T16:06:44;19.60;95.40
674;DHT22;319;48.764;9.174;2023-08-06T16:09:12;19.60;95.50
674;DHT22;319;48.764;9.174;2023-08-06T16:11:39;19.50;95.50
674;DHT22;319;48.764;9.174;2023-08-06T16:14:06;19.30;95.80
674;DHT22;319;48.764;9.174;2023-08-06T16:16:33;19.30;95.20
674;DHT22;319;48.764;9.174;2023-08-06T16:19:01;19.30;95.40
674;DHT22;319;48.764;9.174;2023-08-06T16:21:28;19.40;95.20
674;DHT22;319;48.764;9.174;2023-08-06T16:23:56;19.40;95.00
674;DHT22;319;48.764;9.174;2023-08-06T16:26:23;19.40;94.80
674;DHT22;319;48.764;9.174;2023-08-06T16:28:50;19.50;95.10
674;DHT22;319;48.764;9.174;2023-08-06T16:31:18;19.40;95.40
674;DHT22;319;48.764;9.174;2023-08-06T16:33:45;19.40;95.20
674;DHT22;319;48.764;9.174;2023-08-06T16:36:12;19.40;95.20
674;DHT22;319;48.764;9.174;2023-08-06T16:38:39;19.20;95.40